Terminal Aerodrome Forecast
Issued by NWS Charleston, SC

Home | Current Version | Previous Version | Text Only | Print | Product List | Glossary On
Versions: 1 2 3 4 5 6 7 8 9 10 11 12 13 14 15 16 17 18 19 20 21 22 23 24 25 26 27
000
FTUS42 KCHS 302300 CCA
TAFCHS
TAF COR
KCHS 302359Z 3100/3124 02005KT P6SM SCT015 BKN035
     FM311300 36008KT P6SM SCT040
     FM312200 32005KT P6SM SKC=

USA.gov is the U.S. government's official web portal to all federal, state and local government web resources and services.